Accueil
METAR-TAF:

METAR-TAF

Aéroports :

Aéroport de Kuressaare

Kuressaare, Estonie

latitude: 58-13-48N, longitude: 022-30-34E, altitude: 4 m

Observation

Le bulletin a été fait il y a 41 minutes, à 11:50 UTC
Vent 10 kt de ouest/sud-ouest, variant entre sud/sud-ouest et ouest/nord-ouest
Température 5°C
Humidité 81%
Pression 1028 hPa
Visibilité 10 km ou plus
pas de nuages en-dessous de 1500 mètres et pas de cumulonimbus.

METAR: EEKE 201150Z 25010KT 200V290 CAVOK 05/02 Q1028 R17/290095

Heure: 14:31 (12:31 UTC)

Prévision

Le bulletin a été fait il y a 6 heures et 31 minutes, à 06:00 UTC
Prévision valable du 20 à 07 UTC au 20 à 13 UTC
Vent 12 kt de ouest
Visibilité 10 km ou plus
pas de nuages en-dessous de 1500 mètres et pas de cumulonimbus.
Evoluant progressivement
du 20 à 10 UTC au 20 à 12 UTC
Vent 14 kt de ouest avec des rafales jusqu'à 30 kt

TAF: EEKE 200600Z 2007/2013 26012KT CAVOK BECMG 2010/2012 26014G30KT

Observations et prévisions météorologiques de plus de 4000 aéroports (messages METAR et TAF).

Les stations disponibles sont représentées par des disques jaunes et rouges sur la carte.

Passer la souris dessus pour voir le nom de la station.

Cliquer dessus pour voir les observations et prévisions météorologiques.

Pour changer de carte: cliquez sur les boutons verts avec une croix noire pour zoomer, sur le bouton vert avec un tiret pour effectuer un zoom arrière, ou sur les flèches vertes pour les cartes adjacentes.


METAR-TAF: